sensor_id;sensor_type;location;lat;lon;timestamp;temperature;humidity
31084;DHT22;36333;51.382;0.016;2022-07-10T00:02:13;18.10;90.60
31084;DHT22;36333;51.382;0.016;2022-07-10T00:04:41;18.10;90.60
31084;DHT22;36333;51.382;0.016;2022-07-10T00:07:08;18.10;90.70
31084;DHT22;36333;51.382;0.016;2022-07-10T00:09:36;18.00;90.80
31084;DHT22;36333;51.382;0.016;2022-07-10T00:12:04;18.00;90.80
31084;DHT22;36333;51.382;0.016;2022-07-10T00:14:32;17.90;90.80
31084;DHT22;36333;51.382;0.016;2022-07-10T00:17:00;17.90;91.20
31084;DHT22;36333;51.382;0.016;2022-07-10T00:19:27;17.90;90.70
31084;DHT22;36333;51.382;0.016;2022-07-10T00:21:55;17.90;90.70
31084;DHT22;36333;51.382;0.016;2022-07-10T00:24:22;17.90;90.70
31084;DHT22;36333;51.382;0.016;2022-07-10T00:26:50;17.80;90.70
31084;DHT22;36333;51.382;0.016;2022-07-10T00:29:18;17.80;90.70
31084;DHT22;36333;51.382;0.016;2022-07-10T00:31:45;17.70;90.70
31084;DHT22;36333;51.382;0.016;2022-07-10T00:34:13;17.70;90.80
31084;DHT22;36333;51.382;0.016;2022-07-10T00:36:40;17.70;90.80
31084;DHT22;36333;51.382;0.016;2022-07-10T00:39:08;17.70;90.90
31084;DHT22;36333;51.382;0.016;2022-07-10T00:41:36;17.60;90.90
31084;DHT22;36333;51.382;0.016;2022-07-10T00:44:04;17.60;90.90
31084;DHT22;36333;51.382;0.016;2022-07-10T00:46:32;17.60;90.90
31084;DHT22;36333;51.382;0.016;2022-07-10T00:48:59;17.60;90.90
31084;DHT22;36333;51.382;0.016;2022-07-10T00:51:29;17.70;91.40
31084;DHT22;36333;51.382;0.016;2022-07-10T00:53:58;17.60;90.80
31084;DHT22;36333;51.382;0.016;2022-07-10T00:56:27;17.50;90.90
31084;DHT22;36333;51.382;0.016;2022-07-10T00:58:56;17.50;90.90
31084;DHT22;36333;51.382;0.016;2022-07-10T01:01:24;17.50;91.00
31084;DHT22;36333;51.382;0.016;2022-07-10T01:03:52;17.40;91.00
31084;DHT22;36333;51.382;0.016;2022-07-10T01:06:19;17.50;91.10
31084;DHT22;36333;51.382;0.016;2022-07-10T01:08:47;17.40;91.10
31084;DHT22;36333;51.382;0.016;2022-07-10T01:11:15;17.40;91.20
31084;DHT22;36333;51.382;0.016;2022-07-10T01:13:43;17.30;91.20
31084;DHT22;36333;51.382;0.016;2022-07-10T01:16:12;17.30;91.20
31084;DHT22;36333;51.382;0.016;2022-07-10T01:18:40;17.30;91.20
31084;DHT22;36333;51.382;0.016;2022-07-10T01:21:31;17.20;91.30
31084;DHT22;36333;51.382;0.016;2022-07-10T01:24:04;17.20;91.40
31084;DHT22;36333;51.382;0.016;2022-07-10T01:26:34;17.20;91.20
31084;DHT22;36333;51.382;0.016;2022-07-10T01:29:06;17.20;91.10
31084;DHT22;36333;51.382;0.016;2022-07-10T01:31:34;17.10;91.20
31084;DHT22;36333;51.382;0.016;2022-07-10T01:34:05;17.10;91.20
31084;DHT22;36333;51.382;0.016;2022-07-10T01:36:34;17.10;91.20
31084;DHT22;36333;51.382;0.016;2022-07-10T01:39:02;17.10;91.30
31084;DHT22;36333;51.382;0.016;2022-07-10T01:41:30;17.00;91.30
31084;DHT22;36333;51.382;0.016;2022-07-10T01:43:58;17.00;91.30
31084;DHT22;36333;51.382;0.016;2022-07-10T01:46:26;17.00;91.40
31084;DHT22;36333;51.382;0.016;2022-07-10T01:48:53;17.00;91.40
31084;DHT22;36333;51.382;0.016;2022-07-10T01:51:21;16.90;91.40
31084;DHT22;36333;51.382;0.016;2022-07-10T01:53:49;16.90;91.50
31084;DHT22;36333;51.382;0.016;2022-07-10T01:56:17;16.90;91.60
31084;DHT22;36333;51.382;0.016;2022-07-10T01:58:44;16.80;91.50
31084;DHT22;36333;51.382;0.016;2022-07-10T02:01:12;16.80;91.70
31084;DHT22;36333;51.382;0.016;2022-07-10T02:03:40;16.70;91.70
31084;DHT22;36333;51.382;0.016;2022-07-10T02:06:26;16.70;91.80
31084;DHT22;36333;51.382;0.016;2022-07-10T02:08:54;16.70;91.80
31084;DHT22;36333;51.382;0.016;2022-07-10T02:11:21;16.70;91.90
31084;DHT22;36333;51.382;0.016;2022-07-10T02:13:49;16.60;92.00
31084;DHT22;36333;51.382;0.016;2022-07-10T02:16:17;16.60;92.00
31084;DHT22;36333;51.382;0.016;2022-07-10T02:18:45;16.60;92.60
31084;DHT22;36333;51.382;0.016;2022-07-10T02:21:13;16.60;92.00
31084;DHT22;36333;51.382;0.016;2022-07-10T02:23:40;16.50;92.00
31084;DHT22;36333;51.382;0.016;2022-07-10T02:26:08;16.50;92.10
31084;DHT22;36333;51.382;0.016;2022-07-10T02:28:36;16.50;92.20
31084;DHT22;36333;51.382;0.016;2022-07-10T02:31:04;16.50;92.20
31084;DHT22;36333;51.382;0.016;2022-07-10T02:33:31;16.40;92.30
31084;DHT22;36333;51.382;0.016;2022-07-10T02:35:59;16.40;92.30
31084;DHT22;36333;51.382;0.016;2022-07-10T02:38:27;16.40;92.40
31084;DHT22;36333;51.382;0.016;2022-07-10T02:40:55;16.30;92.40
31084;DHT22;36333;51.382;0.016;2022-07-10T02:43:22;16.40;92.40
31084;DHT22;36333;51.382;0.016;2022-07-10T02:45:50;16.30;92.50
31084;DHT22;36333;51.382;0.016;2022-07-10T02:48:18;16.30;92.50
31084;DHT22;36333;51.382;0.016;2022-07-10T02:50:45;16.30;92.50
31084;DHT22;36333;51.382;0.016;2022-07-10T02:53:13;16.30;92.50
31084;DHT22;36333;51.382;0.016;2022-07-10T02:55:40;16.20;92.50
31084;DHT22;36333;51.382;0.016;2022-07-10T02:58:08;16.20;92.60
31084;DHT22;36333;51.382;0.016;2022-07-10T03:00:37;16.20;92.60
31084;DHT22;36333;51.382;0.016;2022-07-10T03:03:05;16.20;92.60
31084;DHT22;36333;51.382;0.016;2022-07-10T03:05:32;16.10;92.60
31084;DHT22;36333;51.382;0.016;2022-07-10T03:08:00;16.10;92.70
31084;DHT22;36333;51.382;0.016;2022-07-10T03:10:28;16.10;92.80
31084;DHT22;36333;51.382;0.016;2022-07-10T03:12:55;16.00;92.70
31084;DHT22;36333;51.382;0.016;2022-07-10T03:15:23;16.00;92.70
31084;DHT22;36333;51.382;0.016;2022-07-10T03:17:50;16.00;92.80
31084;DHT22;36333;51.382;0.016;2022-07-10T03:20:18;16.00;92.80
31084;DHT22;36333;51.382;0.016;2022-07-10T03:22:46;15.90;92.70
31084;DHT22;36333;51.382;0.016;2022-07-10T03:25:14;15.90;92.80
31084;DHT22;36333;51.382;0.016;2022-07-10T03:27:41;15.80;93.10
31084;DHT22;36333;51.382;0.016;2022-07-10T03:30:09;15.80;92.70
31084;DHT22;36333;51.382;0.016;2022-07-10T03:32:38;15.80;92.70
31084;DHT22;36333;51.382;0.016;2022-07-10T03:35:05;15.70;92.70
31084;DHT22;36333;51.382;0.016;2022-07-10T03:37:33;15.70;92.60
31084;DHT22;36333;51.382;0.016;2022-07-10T03:40:01;15.70;92.70
31084;DHT22;36333;51.382;0.016;2022-07-10T03:42:28;15.70;92.70
31084;DHT22;36333;51.382;0.016;2022-07-10T03:44:56;15.60;92.60
31084;DHT22;36333;51.382;0.016;2022-07-10T03:47:24;15.50;92.60
31084;DHT22;36333;51.382;0.016;2022-07-10T03:49:51;15.50;92.60
31084;DHT22;36333;51.382;0.016;2022-07-10T03:52:19;15.40;92.60
31084;DHT22;36333;51.382;0.016;2022-07-10T03:54:47;15.40;92.60
31084;DHT22;36333;51.382;0.016;2022-07-10T03:57:14;15.40;92.60
31084;DHT22;36333;51.382;0.016;2022-07-10T04:00:00;15.30;92.50
31084;DHT22;36333;51.382;0.016;2022-07-10T04:02:38;15.30;92.40
31084;DHT22;36333;51.382;0.016;2022-07-10T04:05:08;15.30;92.50
31084;DHT22;36333;51.382;0.016;2022-07-10T04:07:38;15.30;92.30
31084;DHT22;36333;51.382;0.016;2022-07-10T04:10:06;15.30;92.20
31084;DHT22;36333;51.382;0.016;2022-07-10T04:12:34;15.30;92.20
31084;DHT22;36333;51.382;0.016;2022-07-10T04:15:01;15.20;92.30
31084;DHT22;36333;51.382;0.016;2022-07-10T04:17:29;15.20;92.20
31084;DHT22;36333;51.382;0.016;2022-07-10T04:19:59;15.20;92.20
31084;DHT22;36333;51.382;0.016;2022-07-10T04:22:27;15.20;92.40
31084;DHT22;36333;51.382;0.016;2022-07-10T04:24:55;15.20;92.10
31084;DHT22;36333;51.382;0.016;2022-07-10T04:27:22;15.20;92.10
31084;DHT22;36333;51.382;0.016;2022-07-10T04:29:50;15.20;92.00
31084;DHT22;36333;51.382;0.016;2022-07-10T04:32:18;15.20;92.10
31084;DHT22;36333;51.382;0.016;2022-07-10T04:34:46;15.10;92.10
31084;DHT22;36333;51.382;0.016;2022-07-10T04:37:13;15.10;92.00
31084;DHT22;36333;51.382;0.016;2022-07-10T04:39:41;15.10;92.10
31084;DHT22;36333;51.382;0.016;2022-07-10T04:42:09;15.10;92.10
31084;DHT22;36333;51.382;0.016;2022-07-10T04:44:37;15.10;92.10
31084;DHT22;36333;51.382;0.016;2022-07-10T04:47:05;15.20;92.10
31084;DHT22;36333;51.382;0.016;2022-07-10T04:49:34;15.20;92.00
31084;DHT22;36333;51.382;0.016;2022-07-10T04:52:01;15.20;91.90
31084;DHT22;36333;51.382;0.016;2022-07-10T04:54:29;15.20;92.00
31084;DHT22;36333;51.382;0.016;2022-07-10T04:56:56;15.20;91.80
31084;DHT22;36333;51.382;0.016;2022-07-10T04:59:24;15.30;91.80
31084;DHT22;36333;51.382;0.016;2022-07-10T05:01:52;15.30;91.80
31084;DHT22;36333;51.382;0.016;2022-07-10T05:04:19;15.30;91.80
31084;DHT22;36333;51.382;0.016;2022-07-10T05:06:47;15.30;91.80
31084;DHT22;36333;51.382;0.016;2022-07-10T05:09:15;15.40;91.90
31084;DHT22;36333;51.382;0.016;2022-07-10T05:11:42;15.40;91.80
31084;DHT22;36333;51.382;0.016;2022-07-10T05:14:10;15.40;91.80
31084;DHT22;36333;51.382;0.016;2022-07-10T05:16:38;15.40;91.80
31084;DHT22;36333;51.382;0.016;2022-07-10T05:19:05;15.50;91.80
31084;DHT22;36333;51.382;0.016;2022-07-10T05:21:33;15.50;91.80
31084;DHT22;36333;51.382;0.016;2022-07-10T05:24:01;15.50;91.70
31084;DHT22;36333;51.382;0.016;2022-07-10T05:26:28;15.60;91.70
31084;DHT22;36333;51.382;0.016;2022-07-10T05:28:56;15.70;91.60
31084;DHT22;36333;51.382;0.016;2022-07-10T05:31:26;15.70;91.40
31084;DHT22;36333;51.382;0.016;2022-07-10T05:33:54;15.70;91.50
31084;DHT22;36333;51.382;0.016;2022-07-10T05:36:22;15.80;91.40
31084;DHT22;36333;51.382;0.016;2022-07-10T05:38:49;15.80;91.30
31084;DHT22;36333;51.382;0.016;2022-07-10T05:41:17;15.90;91.30
31084;DHT22;36333;51.382;0.016;2022-07-10T05:43:45;15.90;91.20
31084;DHT22;36333;51.382;0.016;2022-07-10T05:46:12;16.00;91.10
31084;DHT22;36333;51.382;0.016;2022-07-10T05:48:40;16.00;91.10
31084;DHT22;36333;51.382;0.016;2022-07-10T05:51:08;16.10;90.90
31084;DHT22;36333;51.382;0.016;2022-07-10T05:53:56;16.10;90.80
31084;DHT22;36333;51.382;0.016;2022-07-10T05:56:24;16.20;90.60
31084;DHT22;36333;51.382;0.016;2022-07-10T05:58:51;16.30;90.60
31084;DHT22;36333;51.382;0.016;2022-07-10T06:01:19;16.30;90.60
31084;DHT22;36333;51.382;0.016;2022-07-10T06:03:46;16.40;90.60
31084;DHT22;36333;51.382;0.016;2022-07-10T06:06:14;16.40;90.40
31084;DHT22;36333;51.382;0.016;2022-07-10T06:08:44;16.50;90.30
31084;DHT22;36333;51.382;0.016;2022-07-10T06:11:12;16.50;90.20
31084;DHT22;36333;51.382;0.016;2022-07-10T06:13:40;16.60;90.00
31084;DHT22;36333;51.382;0.016;2022-07-10T06:16:08;16.60;89.80
31084;DHT22;36333;51.382;0.016;2022-07-10T06:18:35;16.70;89.10
31084;DHT22;36333;51.382;0.016;2022-07-10T06:21:04;16.70;88.90
31084;DHT22;36333;51.382;0.016;2022-07-10T06:23:31;16.80;88.60
31084;DHT22;36333;51.382;0.016;2022-07-10T06:25:59;16.90;88.40
31084;DHT22;36333;51.382;0.016;2022-07-10T06:28:27;16.90;88.20
31084;DHT22;36333;51.382;0.016;2022-07-10T06:30:54;17.00;87.80
31084;DHT22;36333;51.382;0.016;2022-07-10T06:33:27;17.00;87.50
31084;DHT22;36333;51.382;0.016;2022-07-10T06:35:54;17.10;87.30
31084;DHT22;36333;51.382;0.016;2022-07-10T06:38:22;17.10;87.00
31084;DHT22;36333;51.382;0.016;2022-07-10T06:40:52;17.20;86.80
31084;DHT22;36333;51.382;0.016;2022-07-10T06:43:20;17.30;86.40
31084;DHT22;36333;51.382;0.016;2022-07-10T06:45:48;17.30;86.00
31084;DHT22;36333;51.382;0.016;2022-07-10T06:48:15;17.40;85.90
31084;DHT22;36333;51.382;0.016;2022-07-10T06:50:43;17.40;84.70
31084;DHT22;36333;51.382;0.016;2022-07-10T06:53:11;17.50;83.80
31084;DHT22;36333;51.382;0.016;2022-07-10T06:55:39;17.60;84.60
31084;DHT22;36333;51.382;0.016;2022-07-10T06:58:07;17.60;84.10
31084;DHT22;36333;51.382;0.016;2022-07-10T07:00:34;17.70;84.00
31084;DHT22;36333;51.382;0.016;2022-07-10T07:03:02;17.70;83.70
31084;DHT22;36333;51.382;0.016;2022-07-10T07:05:30;17.80;83.70
31084;DHT22;36333;51.382;0.016;2022-07-10T07:07:58;17.90;83.40
31084;DHT22;36333;51.382;0.016;2022-07-10T07:10:25;17.90;83.20
31084;DHT22;36333;51.382;0.016;2022-07-10T07:12:53;17.90;83.30
31084;DHT22;36333;51.382;0.016;2022-07-10T07:15:21;17.90;83.50
31084;DHT22;36333;51.382;0.016;2022-07-10T07:17:51;18.00;83.60
31084;DHT22;36333;51.382;0.016;2022-07-10T07:20:26;18.00;83.60
31084;DHT22;36333;51.382;0.016;2022-07-10T07:23:12;18.10;83.80
31084;DHT22;36333;51.382;0.016;2022-07-10T07:25:40;18.10;83.80
31084;DHT22;36333;51.382;0.016;2022-07-10T07:28:11;18.10;84.20
31084;DHT22;36333;51.382;0.016;2022-07-10T07:30:39;18.20;84.50
31084;DHT22;36333;51.382;0.016;2022-07-10T07:33:07;18.20;84.50
31084;DHT22;36333;51.382;0.016;2022-07-10T07:35:35;18.30;84.60
31084;DHT22;36333;51.382;0.016;2022-07-10T07:38:03;18.30;84.50
31084;DHT22;36333;51.382;0.016;2022-07-10T07:40:31;18.40;84.60
31084;DHT22;36333;51.382;0.016;2022-07-10T07:42:59;18.40;84.80
31084;DHT22;36333;51.382;0.016;2022-07-10T07:45:27;18.50;84.90
31084;DHT22;36333;51.382;0.016;2022-07-10T07:47:56;18.50;84.80
31084;DHT22;36333;51.382;0.016;2022-07-10T07:50:26;18.50;85.00
31084;DHT22;36333;51.382;0.016;2022-07-10T07:52:54;18.60;85.00
31084;DHT22;36333;51.382;0.016;2022-07-10T07:55:22;18.70;84.90
31084;DHT22;36333;51.382;0.016;2022-07-10T07:57:55;18.70;84.90
31084;DHT22;36333;51.382;0.016;2022-07-10T08:00:25;18.70;85.10
31084;DHT22;36333;51.382;0.016;2022-07-10T08:02:54;18.80;85.30
31084;DHT22;36333;51.382;0.016;2022-07-10T08:05:22;18.80;85.00
31084;DHT22;36333;51.382;0.016;2022-07-10T08:07:54;18.90;85.00
31084;DHT22;36333;51.382;0.016;2022-07-10T08:10:25;18.90;85.10
31084;DHT22;36333;51.382;0.016;2022-07-10T08:12:54;19.00;85.10
31084;DHT22;36333;51.382;0.016;2022-07-10T08:15:22;19.00;85.10
31084;DHT22;36333;51.382;0.016;2022-07-10T08:17:51;19.00;84.90
31084;DHT22;36333;51.382;0.016;2022-07-10T08:20:20;19.10;84.90
31084;DHT22;36333;51.382;0.016;2022-07-10T08:22:48;19.10;85.10
31084;DHT22;36333;51.382;0.016;2022-07-10T08:25:22;19.10;85.30
31084;DHT22;36333;51.382;0.016;2022-07-10T08:27:50;19.20;85.30
31084;DHT22;36333;51.382;0.016;2022-07-10T08:30:17;19.20;85.00
31084;DHT22;36333;51.382;0.016;2022-07-10T08:32:45;19.20;84.70
31084;DHT22;36333;51.382;0.016;2022-07-10T08:35:14;19.30;84.40
31084;DHT22;36333;51.382;0.016;2022-07-10T08:37:43;19.40;84.00
31084;DHT22;36333;51.382;0.016;2022-07-10T08:40:13;19.40;84.20
31084;DHT22;36333;51.382;0.016;2022-07-10T08:42:44;19.50;84.20
31084;DHT22;36333;51.382;0.016;2022-07-10T08:45:13;19.60;83.90
31084;DHT22;36333;51.382;0.016;2022-07-10T08:47:42;19.70;84.10
31084;DHT22;36333;51.382;0.016;2022-07-10T08:50:22;19.70;83.80
31084;DHT22;36333;51.382;0.016;2022-07-10T08:53:15;19.80;83.40
31084;DHT22;36333;51.382;0.016;2022-07-10T08:55:44;19.80;83.40
31084;DHT22;36333;51.382;0.016;2022-07-10T08:58:12;19.90;83.30
31084;DHT22;36333;51.382;0.016;2022-07-10T09:00:41;19.90;83.40
31084;DHT22;36333;51.382;0.016;2022-07-10T09:03:08;20.00;83.40
31084;DHT22;36333;51.382;0.016;2022-07-10T09:05:36;20.00;83.10
31084;DHT22;36333;51.382;0.016;2022-07-10T09:08:04;20.00;82.90
31084;DHT22;36333;51.382;0.016;2022-07-10T09:10:32;20.00;83.10
31084;DHT22;36333;51.382;0.016;2022-07-10T09:13:00;20.00;83.00
31084;DHT22;36333;51.382;0.016;2022-07-10T09:15:32;20.10;83.10
31084;DHT22;36333;51.382;0.016;2022-07-10T09:18:04;20.20;82.80
31084;DHT22;36333;51.382;0.016;2022-07-10T09:20:40;20.20;82.80
31084;DHT22;36333;51.382;0.016;2022-07-10T09:23:17;20.30;82.60
31084;DHT22;36333;51.382;0.016;2022-07-10T09:25:50;20.30;82.00
31084;DHT22;36333;51.382;0.016;2022-07-10T09:28:20;20.40;82.20
31084;DHT22;36333;51.382;0.016;2022-07-10T09:30:48;20.50;81.80
31084;DHT22;36333;51.382;0.016;2022-07-10T09:33:27;20.50;81.00
31084;DHT22;36333;51.382;0.016;2022-07-10T09:35:55;20.50;81.70
31084;DHT22;36333;51.382;0.016;2022-07-10T09:41:20;20.80;81.40
31084;DHT22;36333;51.382;0.016;2022-07-10T09:43:57;20.90;81.10
31084;DHT22;36333;51.382;0.016;2022-07-10T09:46:35;20.90;80.20
31084;DHT22;36333;51.382;0.016;2022-07-10T09:49:14;21.00;80.10
31084;DHT22;36333;51.382;0.016;2022-07-10T09:51:44;21.10;80.00
31084;DHT22;36333;51.382;0.016;2022-07-10T09:54:16;21.10;80.20
31084;DHT22;36333;51.382;0.016;2022-07-10T09:56:47;21.20;80.00
31084;DHT22;36333;51.382;0.016;2022-07-10T09:59:16;21.20;79.70
31084;DHT22;36333;51.382;0.016;2022-07-10T10:01:46;21.30;79.60
31084;DHT22;36333;51.382;0.016;2022-07-10T10:04:16;21.30;78.90
31084;DHT22;36333;51.382;0.016;2022-07-10T10:06:49;21.40;78.90
31084;DHT22;36333;51.382;0.016;2022-07-10T10:09:27;21.30;78.80
31084;DHT22;36333;51.382;0.016;2022-07-10T10:11:59;21.30;78.50
31084;DHT22;36333;51.382;0.016;2022-07-10T10:14:31;21.40;79.30
31084;DHT22;36333;51.382;0.016;2022-07-10T10:17:01;21.50;79.70
31084;DHT22;36333;51.382;0.016;2022-07-10T10:19:31;21.60;79.10
31084;DHT22;36333;51.382;0.016;2022-07-10T10:22:18;21.70;78.50
31084;DHT22;36333;51.382;0.016;2022-07-10T10:24:47;21.80;78.40
31084;DHT22;36333;51.382;0.016;2022-07-10T10:27:15;21.80;77.70
31084;DHT22;36333;51.382;0.016;2022-07-10T10:29:44;21.80;78.00
31084;DHT22;36333;51.382;0.016;2022-07-10T10:32:12;21.90;78.30
31084;DHT22;36333;51.382;0.016;2022-07-10T10:34:45;21.90;77.80
31084;DHT22;36333;51.382;0.016;2022-07-10T10:37:36;22.00;78.20
31084;DHT22;36333;51.382;0.016;2022-07-10T10:40:05;22.10;77.10
31084;DHT22;36333;51.382;0.016;2022-07-10T10:42:38;22.20;78.30
31084;DHT22;36333;51.382;0.016;2022-07-10T10:45:33;22.30;77.60
31084;DHT22;36333;51.382;0.016;2022-07-10T10:48:05;22.40;76.70
31084;DHT22;36333;51.382;0.016;2022-07-10T10:50:54;22.40;77.20
31084;DHT22;36333;51.382;0.016;2022-07-10T10:53:29;22.60;76.00
31084;DHT22;36333;51.382;0.016;2022-07-10T10:58:40;23.00;75.20
31084;DHT22;36333;51.382;0.016;2022-07-10T11:06:41;23.30;73.20
31084;DHT22;36333;51.382;0.016;2022-07-10T11:09:31;23.20;73.50
31084;DHT22;36333;51.382;0.016;2022-07-10T11:12:05;23.20;72.40
31084;DHT22;36333;51.382;0.016;2022-07-10T11:14:38;23.20;73.50
31084;DHT22;36333;51.382;0.016;2022-07-10T11:17:07;23.20;73.40
31084;DHT22;36333;51.382;0.016;2022-07-10T11:19:36;23.30;73.30
31084;DHT22;36333;51.382;0.016;2022-07-10T11:22:11;23.30;72.90
31084;DHT22;36333;51.382;0.016;2022-07-10T11:30:09;23.30;72.00
31084;DHT22;36333;51.382;0.016;2022-07-10T11:32:38;23.30;72.80
31084;DHT22;36333;51.382;0.016;2022-07-10T11:35:13;23.20;72.30
31084;DHT22;36333;51.382;0.016;2022-07-10T11:37:51;23.20;71.60
31084;DHT22;36333;51.382;0.016;2022-07-10T11:40:20;23.20;70.80
31084;DHT22;36333;51.382;0.016;2022-07-10T11:42:55;23.20;71.50
31084;DHT22;36333;51.382;0.016;2022-07-10T11:45:28;23.30;72.20
31084;DHT22;36333;51.382;0.016;2022-07-10T11:47:57;23.40;71.60
31084;DHT22;36333;51.382;0.016;2022-07-10T11:50:25;23.50;71.90
31084;DHT22;36333;51.382;0.016;2022-07-10T11:52:54;23.50;71.80
31084;DHT22;36333;51.382;0.016;2022-07-10T11:55:22;23.60;71.50
31084;DHT22;36333;51.382;0.016;2022-07-10T11:57:50;23.60;71.00
31084;DHT22;36333;51.382;0.016;2022-07-10T12:00:22;23.70;71.60
31084;DHT22;36333;51.382;0.016;2022-07-10T12:02:52;23.80;71.70
31084;DHT22;36333;51.382;0.016;2022-07-10T12:05:50;24.00;71.10
31084;DHT22;36333;51.382;0.016;2022-07-10T12:08:18;24.00;69.50
31084;DHT22;36333;51.382;0.016;2022-07-10T12:10:46;24.10;69.10
31084;DHT22;36333;51.382;0.016;2022-07-10T12:13:17;24.10;68.20
31084;DHT22;36333;51.382;0.016;2022-07-10T12:15:45;24.10;69.10
31084;DHT22;36333;51.382;0.016;2022-07-10T12:18:20;24.20;69.30
31084;DHT22;36333;51.382;0.016;2022-07-10T12:20:49;24.30;68.50
31084;DHT22;36333;51.382;0.016;2022-07-10T12:23:18;24.40;68.40
31084;DHT22;36333;51.382;0.016;2022-07-10T12:25:48;24.40;68.00
31084;DHT22;36333;51.382;0.016;2022-07-10T12:28:18;24.40;68.10
31084;DHT22;36333;51.382;0.016;2022-07-10T12:30:47;24.40;67.90
31084;DHT22;36333;51.382;0.016;2022-07-10T12:33:22;24.40;68.60
31084;DHT22;36333;51.382;0.016;2022-07-10T12:38:23;24.50;67.60
31084;DHT22;36333;51.382;0.016;2022-07-10T12:41:12;24.60;67.00
31084;DHT22;36333;51.382;0.016;2022-07-10T12:43:42;24.60;67.10
31084;DHT22;36333;51.382;0.016;2022-07-10T12:46:15;25.60;67.70
31084;DHT22;36333;51.382;0.016;2022-07-10T12:49:00;24.70;66.90
31084;DHT22;36333;51.382;0.016;2022-07-10T12:51:29;24.80;66.70
31084;DHT22;36333;51.382;0.016;2022-07-10T12:54:34;24.90;66.50
31084;DHT22;36333;51.382;0.016;2022-07-10T12:57:04;25.00;66.30
31084;DHT22;36333;51.382;0.016;2022-07-10T12:59:36;25.10;66.40
31084;DHT22;36333;51.382;0.016;2022-07-10T13:02:20;25.10;66.10
31084;DHT22;36333;51.382;0.016;2022-07-10T13:04:56;25.20;65.80
31084;DHT22;36333;51.382;0.016;2022-07-10T13:07:35;25.30;65.90
31084;DHT22;36333;51.382;0.016;2022-07-10T13:10:07;25.40;65.60
31084;DHT22;36333;51.382;0.016;2022-07-10T13:12:35;25.50;66.20
31084;DHT22;36333;51.382;0.016;2022-07-10T13:15:03;25.60;65.40
31084;DHT22;36333;51.382;0.016;2022-07-10T13:17:31;25.60;66.60
31084;DHT22;36333;51.382;0.016;2022-07-10T13:19:58;25.70;65.00
31084;DHT22;36333;51.382;0.016;2022-07-10T13:22:26;25.80;65.80
31084;DHT22;36333;51.382;0.016;2022-07-10T13:24:54;25.90;65.20
31084;DHT22;36333;51.382;0.016;2022-07-10T13:27:21;26.00;64.40
31084;DHT22;36333;51.382;0.016;2022-07-10T13:29:51;26.00;64.50
31084;DHT22;36333;51.382;0.016;2022-07-10T13:32:18;26.10;64.20
31084;DHT22;36333;51.382;0.016;2022-07-10T13:34:46;26.20;64.20
31084;DHT22;36333;51.382;0.016;2022-07-10T13:37:13;26.20;64.00
31084;DHT22;36333;51.382;0.016;2022-07-10T13:39:42;26.30;64.10
31084;DHT22;36333;51.382;0.016;2022-07-10T13:42:10;26.30;63.60
31084;DHT22;36333;51.382;0.016;2022-07-10T13:44:38;26.40;63.10
31084;DHT22;36333;51.382;0.016;2022-07-10T13:47:05;26.60;62.90
31084;DHT22;36333;51.382;0.016;2022-07-10T13:49:33;26.80;63.10
31084;DHT22;36333;51.382;0.016;2022-07-10T13:52:01;27.00;61.00
31084;DHT22;36333;51.382;0.016;2022-07-10T13:54:28;27.20;62.20
31084;DHT22;36333;51.382;0.016;2022-07-10T13:56:56;27.40;61.90
31084;DHT22;36333;51.382;0.016;2022-07-10T13:59:23;27.70;61.10
31084;DHT22;36333;51.382;0.016;2022-07-10T14:01:51;27.90;61.00
31084;DHT22;36333;51.382;0.016;2022-07-10T14:04:19;28.00;60.10
31084;DHT22;36333;51.382;0.016;2022-07-10T14:06:49;28.00;60.10
31084;DHT22;36333;51.382;0.016;2022-07-10T14:09:17;28.00;59.90
31084;DHT22;36333;51.382;0.016;2022-07-10T14:11:45;28.00;59.70
31084;DHT22;36333;51.382;0.016;2022-07-10T14:14:13;28.10;60.00
31084;DHT22;36333;51.382;0.016;2022-07-10T14:16:40;28.10;59.90
31084;DHT22;36333;51.382;0.016;2022-07-10T14:19:10;28.10;59.70
31084;DHT22;36333;51.382;0.016;2022-07-10T14:21:40;28.10;59.40
31084;DHT22;36333;51.382;0.016;2022-07-10T14:24:08;28.10;59.20
31084;DHT22;36333;51.382;0.016;2022-07-10T14:26:35;28.00;58.70
31084;DHT22;36333;51.382;0.016;2022-07-10T14:29:03;27.90;59.00
31084;DHT22;36333;51.382;0.016;2022-07-10T14:31:32;27.90;59.30
31084;DHT22;36333;51.382;0.016;2022-07-10T14:34:00;28.00;59.40
31084;DHT22;36333;51.382;0.016;2022-07-10T14:36:27;28.10;59.60
31084;DHT22;36333;51.382;0.016;2022-07-10T14:38:56;28.20;59.10
31084;DHT22;36333;51.382;0.016;2022-07-10T14:41:25;28.50;58.70
31084;DHT22;36333;51.382;0.016;2022-07-10T14:43:53;28.60;58.60
31084;DHT22;36333;51.382;0.016;2022-07-10T14:46:20;28.50;58.20
31084;DHT22;36333;51.382;0.016;2022-07-10T14:48:48;28.50;58.10
31084;DHT22;36333;51.382;0.016;2022-07-10T14:51:17;28.50;58.70
31084;DHT22;36333;51.382;0.016;2022-07-10T14:53:53;28.70;58.70
31084;DHT22;36333;51.382;0.016;2022-07-10T14:56:21;28.90;58.50
31084;DHT22;36333;51.382;0.016;2022-07-10T14:58:49;29.00;58.00
31084;DHT22;36333;51.382;0.016;2022-07-10T15:01:37;29.10;57.50
31084;DHT22;36333;51.382;0.016;2022-07-10T15:04:05;29.30;57.60
31084;DHT22;36333;51.382;0.016;2022-07-10T15:06:32;29.40;55.30
31084;DHT22;36333;51.382;0.016;2022-07-10T15:09:00;29.60;56.60
31084;DHT22;36333;51.382;0.016;2022-07-10T15:11:28;29.70;56.20
31084;DHT22;36333;51.382;0.016;2022-07-10T15:13:55;29.70;55.70
31084;DHT22;36333;51.382;0.016;2022-07-10T15:16:28;29.70;55.60
31084;DHT22;36333;51.382;0.016;2022-07-10T15:18:56;29.70;55.90
31084;DHT22;36333;51.382;0.016;2022-07-10T15:21:24;29.80;56.00
31084;DHT22;36333;51.382;0.016;2022-07-10T15:23:51;29.90;55.00
31084;DHT22;36333;51.382;0.016;2022-07-10T15:26:19;30.10;55.00
31084;DHT22;36333;51.382;0.016;2022-07-10T15:28:46;30.30;54.80
31084;DHT22;36333;51.382;0.016;2022-07-10T15:31:14;30.40;54.50
31084;DHT22;36333;51.382;0.016;2022-07-10T15:33:42;30.40;54.10
31084;DHT22;36333;51.382;0.016;2022-07-10T15:36:12;30.40;54.70
31084;DHT22;36333;51.382;0.016;2022-07-10T15:38:40;30.40;53.80
31084;DHT22;36333;51.382;0.016;2022-07-10T15:41:08;30.50;54.10
31084;DHT22;36333;51.382;0.016;2022-07-10T15:43:36;30.80;54.60
31084;DHT22;36333;51.382;0.016;2022-07-10T15:46:04;31.00;53.00
31084;DHT22;36333;51.382;0.016;2022-07-10T15:48:33;31.30;54.20
31084;DHT22;36333;51.382;0.016;2022-07-10T15:51:01;31.50;53.40
31084;DHT22;36333;51.382;0.016;2022-07-10T15:53:28;31.70;53.00
31084;DHT22;36333;51.382;0.016;2022-07-10T15:55:55;31.90;51.70
31084;DHT22;36333;51.382;0.016;2022-07-10T15:58:23;32.00;51.60
31084;DHT22;36333;51.382;0.016;2022-07-10T16:00:50;32.10;52.00
31084;DHT22;36333;51.382;0.016;2022-07-10T16:03:18;32.10;52.70
31084;DHT22;36333;51.382;0.016;2022-07-10T16:05:45;31.90;50.80